Pagrindinis puslapis
METAR-TAF:

METAR-TAF

Oro uostai :

Calvi, Prancūzija

platuma: 42-32N, ilguma: 008-48E, Aukštis: 64 m

Dabartinis oras

Ataskaita buvo paskelbta 20 minutes, ne 23:30 UTC
Vėjas 4 kt iš Pietų
Temperatūra 8°C
Drėgmė 76%
Slėgis 1026 hPa
Matomumas 10 km arba daugiau
nėra debesų žemiau 1500 m ir nėra kamuolinių lietaus debesų

METAR: LFKC 072330Z AUTO 17004KT CAVOK 08/04 Q1026

Laikas: 01:50 (23:50 UTC)

Prognozė

Ataskaita buvo paskelbta 21 valandos ir 50 minutes, ne 02:00 UTC
Prognozė galioja nuo 07 metu 03 UTC su 08 metu 03 UTC
Vėjas 5 kt iš Pietų
Matomumas 10 km arba daugiau
nėra debesų žemiau 1500 m ir nėra kamuolinių lietaus debesų
Tapsmas
nuo 07 metu 08 UTC su 07 metu 10 UTC
Vėjas 12 kt iš Šiaurės
Tapsmas
nuo 07 metu 16 UTC su 07 metu 18 UTC
Vėjas 5 kt iš Pietų

TAF: LFKC 070200Z 0703/0803 17005KT CAVOK TX21/0712Z TN07/0706Z BECMG 0708/0710 01012KT BECMG 0716/0718 18005KT

Orai ataskaitas ir orų prognozės (METAR, TAF).

turimą stotys yra geltonos ir raudonos taškus žemėlapyje.

Perkelti pele per norėdami pamatyti stoties vardą.

Tada spustelėkite, norėdami matyti oro stebėjimo ir prognozės.

Norėdami pakeisti žemėlapį: spustelėkite ant žalios mygtukų su juodo kryžiaus žemyn,; žalią mygtuką su brūkšneliu, jei norite nutolinti; arba žalių rodyklių gretimoms žemėlapius.


METAR-TAF: